<?xml version="1.0" encoding="UTF-8" standalone="no" ?>
<gpx xmlns="http://www.topografix.com/GPX/1/1" xmlns:xsi="http://www.w3.org/2001/XMLSchema-instance" xsi:schemaLocation="http://www.topografix.com/GPX/1/1 http://www.topografix.com/GPX/1/1/gpx.xsd" version="1.1" creator="VisuGPX - https://www.visugpx.com">
  <metadata>
    <name>ChapelleE_GesvresRagon_11-20km</name>
    <desc><![CDATA[gnerando idor:10119982_10751486_12328489_12879936_8202803]]></desc>
  </metadata>
  <trk>
    <name><![CDATA[ChapelleE_GesvresEtRagon_11km-8202803]]></name>
    <extensions>
      <line xmlns="http://www.topografix.com/GPX/gpx_style/0/2">
        <color>00FFFF</color>
        <width>4</width>
      </line>
    </extensions>
    <trkseg>
      <trkpt lat="47.2969" lon="-1.56492">
        <ele>37</ele>
        <time>2023-11-03T11:21:56Z</time>
      </trkpt>
      <trkpt lat="47.29674" lon="-1.56507">
        <ele>38</ele>
        <time>2023-11-03T11:22:21Z</time>
      </trkpt>
      <trkpt lat="47.29656" lon="-1.5652">
        <ele>38</ele>
        <time>2023-11-03T11:22:48Z</time>
      </trkpt>
      <trkpt lat="47.29638" lon="-1.56527">
        <ele>38</ele>
        <time>2023-11-03T11:23:13Z</time>
      </trkpt>
      <trkpt lat="47.29619" lon="-1.56528">
        <ele>38</ele>
        <time>2023-11-03T11:23:38Z</time>
      </trkpt>
      <trkpt lat="47.29615" lon="-1.56555">
        <ele>37</ele>
        <time>2023-11-03T11:24:03Z</time>
      </trkpt>
      <trkpt lat="47.29619" lon="-1.56581">
        <ele>37</ele>
        <time>2023-11-03T11:24:27Z</time>
      </trkpt>
      <trkpt lat="47.29624" lon="-1.56608">
        <ele>36</ele>
        <time>2023-11-03T11:24:53Z</time>
      </trkpt>
      <trkpt lat="47.29627" lon="-1.56634">
        <ele>35</ele>
        <time>2023-11-03T11:25:17Z</time>
      </trkpt>
      <trkpt lat="47.29634" lon="-1.5666">
        <ele>34</ele>
        <time>2023-11-03T11:25:42Z</time>
      </trkpt>
      <trkpt lat="47.29643" lon="-1.56684">
        <ele>33</ele>
        <time>2023-11-03T11:26:07Z</time>
      </trkpt>
      <trkpt lat="47.29634" lon="-1.56708">
        <ele>33</ele>
        <time>2023-11-03T11:26:32Z</time>
      </trkpt>
      <trkpt lat="47.29617" lon="-1.56721">
        <ele>33</ele>
        <time>2023-11-03T11:26:57Z</time>
      </trkpt>
      <trkpt lat="47.29607" lon="-1.56744">
        <ele>33</ele>
        <time>2023-11-03T11:27:22Z</time>
      </trkpt>
      <trkpt lat="47.29594" lon="-1.56762">
        <ele>33</ele>
        <time>2023-11-03T11:27:46Z</time>
      </trkpt>
      <trkpt lat="47.29575" lon="-1.56772">
        <ele>32</ele>
        <time>2023-11-03T11:28:13Z</time>
      </trkpt>
      <trkpt lat="47.29558" lon="-1.56778">
        <ele>31</ele>
        <time>2023-11-03T11:28:36Z</time>
      </trkpt>
      <trkpt lat="47.29539" lon="-1.56772">
        <ele>30</ele>
        <time>2023-11-03T11:29:02Z</time>
      </trkpt>
      <trkpt lat="47.29521" lon="-1.56771">
        <ele>29</ele>
        <time>2023-11-03T11:29:26Z</time>
      </trkpt>
      <trkpt lat="47.29503" lon="-1.56776">
        <ele>28</ele>
        <time>2023-11-03T11:29:50Z</time>
      </trkpt>
      <trkpt lat="47.29485" lon="-1.56776">
        <ele>28</ele>
        <time>2023-11-03T11:30:14Z</time>
      </trkpt>
      <trkpt lat="47.29467" lon="-1.56771">
        <ele>27</ele>
        <time>2023-11-03T11:30:39Z</time>
      </trkpt>
      <trkpt lat="47.29448" lon="-1.56765">
        <ele>26</ele>
        <time>2023-11-03T11:31:05Z</time>
      </trkpt>
      <trkpt lat="47.2943" lon="-1.56762">
        <ele>25</ele>
        <time>2023-11-03T11:31:29Z</time>
      </trkpt>
      <trkpt lat="47.29413" lon="-1.56752">
        <ele>25</ele>
        <time>2023-11-03T11:31:53Z</time>
      </trkpt>
      <trkpt lat="47.29398" lon="-1.56737">
        <ele>24</ele>
        <time>2023-11-03T11:32:17Z</time>
      </trkpt>
      <trkpt lat="47.2938" lon="-1.56725">
        <ele>23</ele>
        <time>2023-11-03T11:32:44Z</time>
      </trkpt>
      <trkpt lat="47.29367" lon="-1.56707">
        <ele>23</ele>
        <time>2023-11-03T11:33:08Z</time>
      </trkpt>
      <trkpt lat="47.29353" lon="-1.56687">
        <ele>22</ele>
        <time>2023-11-03T11:33:34Z</time>
      </trkpt>
      <trkpt lat="47.29337" lon="-1.56674">
        <ele>21</ele>
        <time>2023-11-03T11:33:58Z</time>
      </trkpt>
      <trkpt lat="47.2932" lon="-1.56662">
        <ele>21</ele>
        <time>2023-11-03T11:34:23Z</time>
      </trkpt>
      <trkpt lat="47.29304" lon="-1.56649">
        <ele>21</ele>
        <time>2023-11-03T11:34:48Z</time>
      </trkpt>
      <trkpt lat="47.2929" lon="-1.5663">
        <ele>21</ele>
        <time>2023-11-03T11:35:13Z</time>
      </trkpt>
      <trkpt lat="47.29275" lon="-1.56616">
        <ele>21</ele>
        <time>2023-11-03T11:35:37Z</time>
      </trkpt>
      <trkpt lat="47.29257" lon="-1.56619">
        <ele>20</ele>
        <time>2023-11-03T11:36:01Z</time>
      </trkpt>
      <trkpt lat="47.29244" lon="-1.56638">
        <ele>18</ele>
        <time>2023-11-03T11:36:25Z</time>
      </trkpt>
      <trkpt lat="47.29225" lon="-1.56638">
        <ele>18</ele>
        <time>2023-11-03T11:36:51Z</time>
      </trkpt>
      <trkpt lat="47.29207" lon="-1.5663">
        <ele>19</ele>
        <time>2023-11-03T11:37:16Z</time>
      </trkpt>
      <trkpt lat="47.29188" lon="-1.56632">
        <ele>19</ele>
        <time>2023-11-03T11:37:41Z</time>
      </trkpt>
      <trkpt lat="47.2917" lon="-1.56631">
        <ele>19</ele>
        <time>2023-11-03T11:38:05Z</time>
      </trkpt>
      <trkpt lat="47.29151" lon="-1.56634">
        <ele>18</ele>
        <time>2023-11-03T11:38:31Z</time>
      </trkpt>
      <trkpt lat="47.29134" lon="-1.56625">
        <ele>18</ele>
        <time>2023-11-03T11:38:55Z</time>
      </trkpt>
      <trkpt lat="47.29124" lon="-1.56602">
        <ele>20</ele>
        <time>2023-11-03T11:39:19Z</time>
      </trkpt>
      <trkpt lat="47.29111" lon="-1.56583">
        <ele>21</ele>
        <time>2023-11-03T11:39:44Z</time>
      </trkpt>
      <trkpt lat="47.29101" lon="-1.5656">
        <ele>23</ele>
        <time>2023-11-03T11:40:09Z</time>
      </trkpt>
      <trkpt lat="47.29093" lon="-1.56536">
        <ele>25</ele>
        <time>2023-11-03T11:40:33Z</time>
      </trkpt>
      <trkpt lat="47.29085" lon="-1.56511">
        <ele>27</ele>
        <time>2023-11-03T11:40:58Z</time>
      </trkpt>
      <trkpt lat="47.29078" lon="-1.56485">
        <ele>29</ele>
        <time>2023-11-03T11:41:23Z</time>
      </trkpt>
      <trkpt lat="47.29063" lon="-1.56471">
        <ele>30</ele>
        <time>2023-11-03T11:41:47Z</time>
      </trkpt>
      <trkpt lat="47.29049" lon="-1.56453">
        <ele>31</ele>
        <time>2023-11-03T11:42:12Z</time>
      </trkpt>
      <trkpt lat="47.29031" lon="-1.56452">
        <ele>31</ele>
        <time>2023-11-03T11:42:36Z</time>
      </trkpt>
      <trkpt lat="47.29012" lon="-1.56447">
        <ele>32</ele>
        <time>2023-11-03T11:43:01Z</time>
      </trkpt>
      <trkpt lat="47.28994" lon="-1.56448">
        <ele>32</ele>
        <time>2023-11-03T11:43:25Z</time>
      </trkpt>
      <trkpt lat="47.28976" lon="-1.56451">
        <ele>32</ele>
        <time>2023-11-03T11:43:50Z</time>
      </trkpt>
      <trkpt lat="47.28957" lon="-1.56453">
        <ele>32</ele>
        <time>2023-11-03T11:44:15Z</time>
      </trkpt>
      <trkpt lat="47.2894" lon="-1.56469">
        <ele>31</ele>
        <time>2023-11-03T11:44:42Z</time>
      </trkpt>
      <trkpt lat="47.28924" lon="-1.56483">
        <ele>31</ele>
        <time>2023-11-03T11:45:07Z</time>
      </trkpt>
      <trkpt lat="47.2891" lon="-1.56499">
        <ele>31</ele>
        <time>2023-11-03T11:45:30Z</time>
      </trkpt>
      <trkpt lat="47.28894" lon="-1.56513">
        <ele>29</ele>
        <time>2023-11-03T11:45:55Z</time>
      </trkpt>
      <trkpt lat="47.28885" lon="-1.56537">
        <ele>26</ele>
        <time>2023-11-03T11:46:20Z</time>
      </trkpt>
      <trkpt lat="47.28877" lon="-1.56562">
        <ele>23</ele>
        <time>2023-11-03T11:46:45Z</time>
      </trkpt>
      <trkpt lat="47.2887" lon="-1.56588">
        <ele>21</ele>
        <time>2023-11-03T11:47:10Z</time>
      </trkpt>
      <trkpt lat="47.28859" lon="-1.56611">
        <ele>20</ele>
        <time>2023-11-03T11:47:36Z</time>
      </trkpt>
      <trkpt lat="47.28853" lon="-1.56637">
        <ele>18</ele>
        <time>2023-11-03T11:48:01Z</time>
      </trkpt>
      <trkpt lat="47.28848" lon="-1.56666">
        <ele>16</ele>
        <time>2023-11-03T11:48:28Z</time>
      </trkpt>
      <trkpt lat="47.28845" lon="-1.56693">
        <ele>16</ele>
        <time>2023-11-03T11:48:53Z</time>
      </trkpt>
      <trkpt lat="47.28843" lon="-1.5672">
        <ele>16</ele>
        <time>2023-11-03T11:49:17Z</time>
      </trkpt>
      <trkpt lat="47.28839" lon="-1.56747">
        <ele>15</ele>
        <time>2023-11-03T11:49:42Z</time>
      </trkpt>
      <trkpt lat="47.28823" lon="-1.56759">
        <ele>15</ele>
        <time>2023-11-03T11:50:06Z</time>
      </trkpt>
      <trkpt lat="47.28804" lon="-1.56758">
        <ele>14</ele>
        <time>2023-11-03T11:50:32Z</time>
      </trkpt>
      <trkpt lat="47.28786" lon="-1.56751">
        <ele>13</ele>
        <time>2023-11-03T11:50:56Z</time>
      </trkpt>
      <trkpt lat="47.28768" lon="-1.56744">
        <ele>13</ele>
        <time>2023-11-03T11:51:21Z</time>
      </trkpt>
      <trkpt lat="47.2875" lon="-1.56739">
        <ele>12</ele>
        <time>2023-11-03T11:51:46Z</time>
      </trkpt>
      <trkpt lat="47.28734" lon="-1.56727">
        <ele>12</ele>
        <time>2023-11-03T11:52:10Z</time>
      </trkpt>
      <trkpt lat="47.28717" lon="-1.56714">
        <ele>13</ele>
        <time>2023-11-03T11:52:35Z</time>
      </trkpt>
      <trkpt lat="47.28702" lon="-1.56696">
        <ele>13</ele>
        <time>2023-11-03T11:53:01Z</time>
      </trkpt>
      <trkpt lat="47.28686" lon="-1.56685">
        <ele>13</ele>
        <time>2023-11-03T11:53:25Z</time>
      </trkpt>
      <trkpt lat="47.28649" lon="-1.56678">
        <ele>13</ele>
        <time>2023-11-03T11:54:14Z</time>
      </trkpt>
      <trkpt lat="47.28631" lon="-1.56673">
        <ele>13</ele>
        <time>2023-11-03T11:54:39Z</time>
      </trkpt>
      <trkpt lat="47.28613" lon="-1.56667">
        <ele>12</ele>
        <time>2023-11-03T11:55:03Z</time>
      </trkpt>
      <trkpt lat="47.28597" lon="-1.56654">
        <ele>12</ele>
        <time>2023-11-03T11:55:28Z</time>
      </trkpt>
      <trkpt lat="47.2858" lon="-1.56641">
        <ele>13</ele>
        <time>2023-11-03T11:55:53Z</time>
      </trkpt>
      <trkpt lat="47.28572" lon="-1.56617">
        <ele>14</ele>
        <time>2023-11-03T11:56:18Z</time>
      </trkpt>
      <trkpt lat="47.2856" lon="-1.56596">
        <ele>15</ele>
        <time>2023-11-03T11:56:42Z</time>
      </trkpt>
      <trkpt lat="47.28562" lon="-1.5657">
        <ele>16</ele>
        <time>2023-11-03T11:57:06Z</time>
      </trkpt>
      <trkpt lat="47.28553" lon="-1.56546">
        <ele>18</ele>
        <time>2023-11-03T11:57:31Z</time>
      </trkpt>
      <trkpt lat="47.28551" lon="-1.5652">
        <ele>21</ele>
        <time>2023-11-03T11:57:55Z</time>
      </trkpt>
      <trkpt lat="47.28545" lon="-1.56494">
        <ele>23</ele>
        <time>2023-11-03T11:58:19Z</time>
      </trkpt>
      <trkpt lat="47.28532" lon="-1.56474">
        <ele>24</ele>
        <time>2023-11-03T11:58:45Z</time>
      </trkpt>
      <trkpt lat="47.28513" lon="-1.56468">
        <ele>24</ele>
        <time>2023-11-03T11:59:10Z</time>
      </trkpt>
      <trkpt lat="47.28495" lon="-1.56463">
        <ele>24</ele>
        <time>2023-11-03T11:59:35Z</time>
      </trkpt>
      <trkpt lat="47.28478" lon="-1.56476">
        <ele>22</ele>
        <time>2023-11-03T12:00:00Z</time>
      </trkpt>
      <trkpt lat="47.2846" lon="-1.56481">
        <ele>20</ele>
        <time>2023-11-03T12:00:25Z</time>
      </trkpt>
      <trkpt lat="47.28442" lon="-1.56488">
        <ele>19</ele>
        <time>2023-11-03T12:00:50Z</time>
      </trkpt>
      <trkpt lat="47.28424" lon="-1.56491">
        <ele>17</ele>
        <time>2023-11-03T12:01:14Z</time>
      </trkpt>
      <trkpt lat="47.28406" lon="-1.56482">
        <ele>18</ele>
        <time>2023-11-03T12:01:39Z</time>
      </trkpt>
      <trkpt lat="47.28388" lon="-1.56477">
        <ele>18</ele>
        <time>2023-11-03T12:02:04Z</time>
      </trkpt>
      <trkpt lat="47.28371" lon="-1.56487">
        <ele>17</ele>
        <time>2023-11-03T12:02:28Z</time>
      </trkpt>
      <trkpt lat="47.28355" lon="-1.56473">
        <ele>18</ele>
        <time>2023-11-03T12:02:53Z</time>
      </trkpt>
      <trkpt lat="47.28337" lon="-1.56474">
        <ele>18</ele>
        <time>2023-11-03T12:03:17Z</time>
      </trkpt>
      <trkpt lat="47.28318" lon="-1.56481">
        <ele>18</ele>
        <time>2023-11-03T12:03:43Z</time>
      </trkpt>
      <trkpt lat="47.28299" lon="-1.5648">
        <ele>18</ele>
        <time>2023-11-03T12:04:09Z</time>
      </trkpt>
      <trkpt lat="47.28281" lon="-1.56482">
        <ele>19</ele>
        <time>2023-11-03T12:04:33Z</time>
      </trkpt>
      <trkpt lat="47.28263" lon="-1.56482">
        <ele>19</ele>
        <time>2023-11-03T12:04:57Z</time>
      </trkpt>
      <trkpt lat="47.28245" lon="-1.56486">
        <ele>20</ele>
        <time>2023-11-03T12:05:21Z</time>
      </trkpt>
      <trkpt lat="47.28228" lon="-1.56497">
        <ele>21</ele>
        <time>2023-11-03T12:05:46Z</time>
      </trkpt>
      <trkpt lat="47.28214" lon="-1.56516">
        <ele>21</ele>
        <time>2023-11-03T12:06:11Z</time>
      </trkpt>
      <trkpt lat="47.282" lon="-1.56534">
        <ele>21</ele>
        <time>2023-11-03T12:06:36Z</time>
      </trkpt>
      <trkpt lat="47.28188" lon="-1.56556">
        <ele>19</ele>
        <time>2023-11-03T12:07:01Z</time>
      </trkpt>
      <trkpt lat="47.28173" lon="-1.56573">
        <ele>19</ele>
        <time>2023-11-03T12:07:27Z</time>
      </trkpt>
      <trkpt lat="47.28137" lon="-1.56589">
        <ele>19</ele>
        <time>2023-11-03T12:08:17Z</time>
      </trkpt>
      <trkpt lat="47.28119" lon="-1.56591">
        <ele>20</ele>
        <time>2023-11-03T12:08:41Z</time>
      </trkpt>
      <trkpt lat="47.28102" lon="-1.56601">
        <ele>20</ele>
        <time>2023-11-03T12:09:05Z</time>
      </trkpt>
      <trkpt lat="47.28085" lon="-1.5661">
        <ele>20</ele>
        <time>2023-11-03T12:09:30Z</time>
      </trkpt>
      <trkpt lat="47.28067" lon="-1.56616">
        <ele>19</ele>
        <time>2023-11-03T12:09:54Z</time>
      </trkpt>
      <trkpt lat="47.28048" lon="-1.56617">
        <ele>19</ele>
        <time>2023-11-03T12:10:20Z</time>
      </trkpt>
      <trkpt lat="47.2803" lon="-1.56617">
        <ele>19</ele>
        <time>2023-11-03T12:10:44Z</time>
      </trkpt>
      <trkpt lat="47.28011" lon="-1.56616">
        <ele>19</ele>
        <time>2023-11-03T12:11:09Z</time>
      </trkpt>
      <trkpt lat="47.27993" lon="-1.56611">
        <ele>19</ele>
        <time>2023-11-03T12:11:33Z</time>
      </trkpt>
      <trkpt lat="47.27975" lon="-1.56602">
        <ele>19</ele>
        <time>2023-11-03T12:11:59Z</time>
      </trkpt>
      <trkpt lat="47.27957" lon="-1.56602">
        <ele>18</ele>
        <time>2023-11-03T12:12:23Z</time>
      </trkpt>
      <trkpt lat="47.27938" lon="-1.56605">
        <ele>17</ele>
        <time>2023-11-03T12:12:48Z</time>
      </trkpt>
      <trkpt lat="47.2792" lon="-1.56606">
        <ele>16</ele>
        <time>2023-11-03T12:13:12Z</time>
      </trkpt>
      <trkpt lat="47.27937" lon="-1.56615">
        <ele>17</ele>
        <time>2023-11-03T12:13:36Z</time>
      </trkpt>
      <trkpt lat="47.27943" lon="-1.56641">
        <ele>16</ele>
        <time>2023-11-03T12:14:01Z</time>
      </trkpt>
      <trkpt lat="47.27942" lon="-1.56669">
        <ele>16</ele>
        <time>2023-11-03T12:14:27Z</time>
      </trkpt>
      <trkpt lat="47.27923" lon="-1.56669">
        <ele>16</ele>
        <time>2023-11-03T12:14:52Z</time>
      </trkpt>
      <trkpt lat="47.27904" lon="-1.5667">
        <ele>17</ele>
        <time>2023-11-03T12:15:17Z</time>
      </trkpt>
      <trkpt lat="47.27887" lon="-1.5668">
        <ele>18</ele>
        <time>2023-11-03T12:15:42Z</time>
      </trkpt>
      <trkpt lat="47.27882" lon="-1.56706">
        <ele>22</ele>
        <time>2023-11-03T12:16:06Z</time>
      </trkpt>
      <trkpt lat="47.27863" lon="-1.56707">
        <ele>22</ele>
        <time>2023-11-03T12:16:32Z</time>
      </trkpt>
      <trkpt lat="47.27846" lon="-1.56715">
        <ele>23</ele>
        <time>2023-11-03T12:16:55Z</time>
      </trkpt>
      <trkpt lat="47.27828" lon="-1.56722">
        <ele>25</ele>
        <time>2023-11-03T12:17:20Z</time>
      </trkpt>
      <trkpt lat="47.27818" lon="-1.56745">
        <ele>28</ele>
        <time>2023-11-03T12:17:45Z</time>
      </trkpt>
      <trkpt lat="47.27806" lon="-1.56765">
        <ele>30</ele>
        <time>2023-11-03T12:18:09Z</time>
      </trkpt>
      <trkpt lat="47.27789" lon="-1.56775">
        <ele>31</ele>
        <time>2023-11-03T12:18:34Z</time>
      </trkpt>
      <trkpt lat="47.27773" lon="-1.56789">
        <ele>32</ele>
        <time>2023-11-03T12:18:58Z</time>
      </trkpt>
      <trkpt lat="47.27758" lon="-1.56803">
        <ele>33</ele>
        <time>2023-11-03T12:19:22Z</time>
      </trkpt>
      <trkpt lat="47.27728" lon="-1.56835">
        <ele>34</ele>
        <time>2023-11-03T12:20:12Z</time>
      </trkpt>
      <trkpt lat="47.27713" lon="-1.56852">
        <ele>34</ele>
        <time>2023-11-03T12:20:37Z</time>
      </trkpt>
      <trkpt lat="47.27699" lon="-1.5687">
        <ele>33</ele>
        <time>2023-11-03T12:21:02Z</time>
      </trkpt>
      <trkpt lat="47.27684" lon="-1.56887">
        <ele>33</ele>
        <time>2023-11-03T12:21:27Z</time>
      </trkpt>
      <trkpt lat="47.2767" lon="-1.56905">
        <ele>33</ele>
        <time>2023-11-03T12:21:52Z</time>
      </trkpt>
      <trkpt lat="47.27655" lon="-1.56921">
        <ele>34</ele>
        <time>2023-11-03T12:22:16Z</time>
      </trkpt>
      <trkpt lat="47.27641" lon="-1.56938">
        <ele>35</ele>
        <time>2023-11-03T12:22:41Z</time>
      </trkpt>
      <trkpt lat="47.27626" lon="-1.56957">
        <ele>36</ele>
        <time>2023-11-03T12:23:07Z</time>
      </trkpt>
      <trkpt lat="47.27613" lon="-1.56975">
        <ele>37</ele>
        <time>2023-11-03T12:23:31Z</time>
      </trkpt>
      <trkpt lat="47.27598" lon="-1.56992">
        <ele>38</ele>
        <time>2023-11-03T12:23:56Z</time>
      </trkpt>
      <trkpt lat="47.27583" lon="-1.5701">
        <ele>39</ele>
        <time>2023-11-03T12:24:22Z</time>
      </trkpt>
      <trkpt lat="47.2757" lon="-1.57028">
        <ele>39</ele>
        <time>2023-11-03T12:24:46Z</time>
      </trkpt>
      <trkpt lat="47.27544" lon="-1.57069">
        <ele>39</ele>
        <time>2023-11-03T12:25:36Z</time>
      </trkpt>
      <trkpt lat="47.27534" lon="-1.5709">
        <ele>39</ele>
        <time>2023-11-03T12:26:00Z</time>
      </trkpt>
      <trkpt lat="47.27518" lon="-1.57105">
        <ele>39</ele>
        <time>2023-11-03T12:26:25Z</time>
      </trkpt>
      <trkpt lat="47.27503" lon="-1.57119">
        <ele>39</ele>
        <time>2023-11-03T12:26:49Z</time>
      </trkpt>
      <trkpt lat="47.27486" lon="-1.57131">
        <ele>38</ele>
        <time>2023-11-03T12:27:14Z</time>
      </trkpt>
      <trkpt lat="47.27469" lon="-1.5714">
        <ele>38</ele>
        <time>2023-11-03T12:27:38Z</time>
      </trkpt>
      <trkpt lat="47.2745" lon="-1.57147">
        <ele>37</ele>
        <time>2023-11-03T12:28:04Z</time>
      </trkpt>
      <trkpt lat="47.27433" lon="-1.57154">
        <ele>36</ele>
        <time>2023-11-03T12:28:28Z</time>
      </trkpt>
      <trkpt lat="47.27428" lon="-1.57209">
        <ele>37</ele>
        <time>2023-11-03T12:29:18Z</time>
      </trkpt>
      <trkpt lat="47.27424" lon="-1.57264">
        <ele>39</ele>
        <time>2023-11-03T12:30:08Z</time>
      </trkpt>
      <trkpt lat="47.27421" lon="-1.57292">
        <ele>39</ele>
        <time>2023-11-03T12:30:34Z</time>
      </trkpt>
      <trkpt lat="47.27414" lon="-1.57346">
        <ele>40</ele>
        <time>2023-11-03T12:31:23Z</time>
      </trkpt>
      <trkpt lat="47.27411" lon="-1.57372">
        <ele>39</ele>
        <time>2023-11-03T12:31:47Z</time>
      </trkpt>
      <trkpt lat="47.27408" lon="-1.57399">
        <ele>39</ele>
        <time>2023-11-03T12:32:12Z</time>
      </trkpt>
      <trkpt lat="47.27402" lon="-1.57424">
        <ele>39</ele>
        <time>2023-11-03T12:32:36Z</time>
      </trkpt>
      <trkpt lat="47.27398" lon="-1.57451">
        <ele>39</ele>
        <time>2023-11-03T12:33:01Z</time>
      </trkpt>
      <trkpt lat="47.27395" lon="-1.57479">
        <ele>39</ele>
        <time>2023-11-03T12:33:27Z</time>
      </trkpt>
      <trkpt lat="47.27394" lon="-1.57507">
        <ele>39</ele>
        <time>2023-11-03T12:33:52Z</time>
      </trkpt>
      <trkpt lat="47.27403" lon="-1.57531">
        <ele>39</ele>
        <time>2023-11-03T12:34:17Z</time>
      </trkpt>
      <trkpt lat="47.2744" lon="-1.57544">
        <ele>40</ele>
        <time>2023-11-03T12:35:08Z</time>
      </trkpt>
      <trkpt lat="47.27455" lon="-1.5756">
        <ele>40</ele>
        <time>2023-11-03T12:35:32Z</time>
      </trkpt>
      <trkpt lat="47.27469" lon="-1.57578">
        <ele>41</ele>
        <time>2023-11-03T12:35:57Z</time>
      </trkpt>
      <trkpt lat="47.2748" lon="-1.57599">
        <ele>41</ele>
        <time>2023-11-03T12:36:21Z</time>
      </trkpt>
      <trkpt lat="47.2749" lon="-1.57623">
        <ele>41</ele>
        <time>2023-11-03T12:36:47Z</time>
      </trkpt>
      <trkpt lat="47.27485" lon="-1.57649">
        <ele>41</ele>
        <time>2023-11-03T12:37:11Z</time>
      </trkpt>
      <trkpt lat="47.27476" lon="-1.57674">
        <ele>40</ele>
        <time>2023-11-03T12:37:37Z</time>
      </trkpt>
      <trkpt lat="47.27466" lon="-1.57697">
        <ele>39</ele>
        <time>2023-11-03T12:38:02Z</time>
      </trkpt>
      <trkpt lat="47.27459" lon="-1.57722">
        <ele>39</ele>
        <time>2023-11-03T12:38:26Z</time>
      </trkpt>
      <trkpt lat="47.2745" lon="-1.57745">
        <ele>38</ele>
        <time>2023-11-03T12:38:50Z</time>
      </trkpt>
      <trkpt lat="47.27444" lon="-1.5777">
        <ele>38</ele>
        <time>2023-11-03T12:39:14Z</time>
      </trkpt>
      <trkpt lat="47.2744" lon="-1.57797">
        <ele>38</ele>
        <time>2023-11-03T12:39:39Z</time>
      </trkpt>
      <trkpt lat="47.27436" lon="-1.57823">
        <ele>38</ele>
        <time>2023-11-03T12:40:03Z</time>
      </trkpt>
      <trkpt lat="47.27435" lon="-1.5785">
        <ele>38</ele>
        <time>2023-11-03T12:40:28Z</time>
      </trkpt>
      <trkpt lat="47.27432" lon="-1.57877">
        <ele>39</ele>
        <time>2023-11-03T12:40:52Z</time>
      </trkpt>
      <trkpt lat="47.2742" lon="-1.57958">
        <ele>40</ele>
        <time>2023-11-03T12:42:08Z</time>
      </trkpt>
      <trkpt lat="47.27416" lon="-1.57985">
        <ele>41</ele>
        <time>2023-11-03T12:42:33Z</time>
      </trkpt>
      <trkpt lat="47.27412" lon="-1.58011">
        <ele>42</ele>
        <time>2023-11-03T12:42:57Z</time>
      </trkpt>
      <trkpt lat="47.27409" lon="-1.58038">
        <ele>42</ele>
        <time>2023-11-03T12:43:21Z</time>
      </trkpt>
      <trkpt lat="47.27412" lon="-1.58066">
        <ele>43</ele>
        <time>2023-11-03T12:43:47Z</time>
      </trkpt>
      <trkpt lat="47.2741" lon="-1.58093">
        <ele>43</ele>
        <time>2023-11-03T12:44:12Z</time>
      </trkpt>
      <trkpt lat="47.27404" lon="-1.58119">
        <ele>42</ele>
        <time>2023-11-03T12:44:37Z</time>
      </trkpt>
      <trkpt lat="47.27398" lon="-1.58145">
        <ele>42</ele>
        <time>2023-11-03T12:45:01Z</time>
      </trkpt>
      <trkpt lat="47.2739" lon="-1.5817">
        <ele>41</ele>
        <time>2023-11-03T12:45:26Z</time>
      </trkpt>
      <trkpt lat="47.27374" lon="-1.58184">
        <ele>41</ele>
        <time>2023-11-03T12:45:51Z</time>
      </trkpt>
      <trkpt lat="47.27362" lon="-1.58205">
        <ele>41</ele>
        <time>2023-11-03T12:46:16Z</time>
      </trkpt>
      <trkpt lat="47.27355" lon="-1.5823">
        <ele>41</ele>
        <time>2023-11-03T12:46:41Z</time>
      </trkpt>
      <trkpt lat="47.27342" lon="-1.58281">
        <ele>41</ele>
        <time>2023-11-03T12:47:30Z</time>
      </trkpt>
      <trkpt lat="47.27336" lon="-1.58307">
        <ele>41</ele>
        <time>2023-11-03T12:47:55Z</time>
      </trkpt>
      <trkpt lat="47.27331" lon="-1.58333">
        <ele>42</ele>
        <time>2023-11-03T12:48:19Z</time>
      </trkpt>
      <trkpt lat="47.27322" lon="-1.58358">
        <ele>44</ele>
        <time>2023-11-03T12:48:45Z</time>
      </trkpt>
      <trkpt lat="47.27316" lon="-1.58385">
        <ele>45</ele>
        <time>2023-11-03T12:49:11Z</time>
      </trkpt>
      <trkpt lat="47.27324" lon="-1.58409">
        <ele>46</ele>
        <time>2023-11-03T12:49:35Z</time>
      </trkpt>
      <trkpt lat="47.27343" lon="-1.58405">
        <ele>47</ele>
        <time>2023-11-03T12:50:01Z</time>
      </trkpt>
      <trkpt lat="47.2736" lon="-1.58411">
        <ele>47</ele>
        <time>2023-11-03T12:50:24Z</time>
      </trkpt>
      <trkpt lat="47.27378" lon="-1.58419">
        <ele>48</ele>
        <time>2023-11-03T12:50:49Z</time>
      </trkpt>
      <trkpt lat="47.27397" lon="-1.58422">
        <ele>48</ele>
        <time>2023-11-03T12:51:14Z</time>
      </trkpt>
      <trkpt lat="47.27434" lon="-1.58429">
        <ele>50</ele>
        <time>2023-11-03T12:52:04Z</time>
      </trkpt>
      <trkpt lat="47.27452" lon="-1.58434">
        <ele>50</ele>
        <time>2023-11-03T12:52:29Z</time>
      </trkpt>
      <trkpt lat="47.2747" lon="-1.58435">
        <ele>51</ele>
        <time>2023-11-03T12:52:53Z</time>
      </trkpt>
      <trkpt lat="47.27488" lon="-1.58444">
        <ele>52</ele>
        <time>2023-11-03T12:53:18Z</time>
      </trkpt>
      <trkpt lat="47.27507" lon="-1.58446">
        <ele>52</ele>
        <time>2023-11-03T12:53:43Z</time>
      </trkpt>
      <trkpt lat="47.27525" lon="-1.58453">
        <ele>52</ele>
        <time>2023-11-03T12:54:08Z</time>
      </trkpt>
      <trkpt lat="47.27544" lon="-1.58455">
        <ele>52</ele>
        <time>2023-11-03T12:54:34Z</time>
      </trkpt>
      <trkpt lat="47.27558" lon="-1.58472">
        <ele>53</ele>
        <time>2023-11-03T12:54:58Z</time>
      </trkpt>
      <trkpt lat="47.27576" lon="-1.58478">
        <ele>52</ele>
        <time>2023-11-03T12:55:23Z</time>
      </trkpt>
      <trkpt lat="47.27594" lon="-1.58486">
        <ele>52</ele>
        <time>2023-11-03T12:55:48Z</time>
      </trkpt>
      <trkpt lat="47.27611" lon="-1.58495">
        <ele>51</ele>
        <time>2023-11-03T12:56:12Z</time>
      </trkpt>
      <trkpt lat="47.2763" lon="-1.58503">
        <ele>51</ele>
        <time>2023-11-03T12:56:38Z</time>
      </trkpt>
      <trkpt lat="47.27647" lon="-1.58514">
        <ele>50</ele>
        <time>2023-11-03T12:57:03Z</time>
      </trkpt>
      <trkpt lat="47.27664" lon="-1.58522">
        <ele>50</ele>
        <time>2023-11-03T12:57:27Z</time>
      </trkpt>
      <trkpt lat="47.27699" lon="-1.5854">
        <ele>51</ele>
        <time>2023-11-03T12:58:16Z</time>
      </trkpt>
      <trkpt lat="47.27717" lon="-1.58547">
        <ele>52</ele>
        <time>2023-11-03T12:58:41Z</time>
      </trkpt>
      <trkpt lat="47.27734" lon="-1.58556">
        <ele>53</ele>
        <time>2023-11-03T12:59:05Z</time>
      </trkpt>
      <trkpt lat="47.27752" lon="-1.58563">
        <ele>53</ele>
        <time>2023-11-03T12:59:30Z</time>
      </trkpt>
      <trkpt lat="47.27769" lon="-1.58572">
        <ele>53</ele>
        <time>2023-11-03T12:59:54Z</time>
      </trkpt>
      <trkpt lat="47.27787" lon="-1.5858">
        <ele>53</ele>
        <time>2023-11-03T13:00:19Z</time>
      </trkpt>
      <trkpt lat="47.27805" lon="-1.58585">
        <ele>52</ele>
        <time>2023-11-03T13:00:44Z</time>
      </trkpt>
      <trkpt lat="47.27824" lon="-1.58586">
        <ele>52</ele>
        <time>2023-11-03T13:01:09Z</time>
      </trkpt>
      <trkpt lat="47.27843" lon="-1.58591">
        <ele>52</ele>
        <time>2023-11-03T13:01:35Z</time>
      </trkpt>
      <trkpt lat="47.2786" lon="-1.58598">
        <ele>52</ele>
        <time>2023-11-03T13:01:58Z</time>
      </trkpt>
      <trkpt lat="47.27879" lon="-1.58603">
        <ele>53</ele>
        <time>2023-11-03T13:02:24Z</time>
      </trkpt>
      <trkpt lat="47.27898" lon="-1.58603">
        <ele>53</ele>
        <time>2023-11-03T13:02:49Z</time>
      </trkpt>
      <trkpt lat="47.27917" lon="-1.58605">
        <ele>53</ele>
        <time>2023-11-03T13:03:15Z</time>
      </trkpt>
      <trkpt lat="47.27917" lon="-1.58632">
        <ele>53</ele>
        <time>2023-11-03T13:03:39Z</time>
      </trkpt>
      <trkpt lat="47.27934" lon="-1.58643">
        <ele>53</ele>
        <time>2023-11-03T13:04:04Z</time>
      </trkpt>
      <trkpt lat="47.27953" lon="-1.58642">
        <ele>53</ele>
        <time>2023-11-03T13:04:29Z</time>
      </trkpt>
      <trkpt lat="47.27971" lon="-1.58639">
        <ele>53</ele>
        <time>2023-11-03T13:04:54Z</time>
      </trkpt>
      <trkpt lat="47.27989" lon="-1.58637">
        <ele>53</ele>
        <time>2023-11-03T13:05:18Z</time>
      </trkpt>
      <trkpt lat="47.28008" lon="-1.58637">
        <ele>53</ele>
        <time>2023-11-03T13:05:43Z</time>
      </trkpt>
      <trkpt lat="47.28026" lon="-1.58639">
        <ele>53</ele>
        <time>2023-11-03T13:06:07Z</time>
      </trkpt>
      <trkpt lat="47.28044" lon="-1.58642">
        <ele>52</ele>
        <time>2023-11-03T13:06:31Z</time>
      </trkpt>
      <trkpt lat="47.28062" lon="-1.58644">
        <ele>52</ele>
        <time>2023-11-03T13:06:55Z</time>
      </trkpt>
      <trkpt lat="47.28081" lon="-1.58646">
        <ele>52</ele>
        <time>2023-11-03T13:07:21Z</time>
      </trkpt>
      <trkpt lat="47.281" lon="-1.58648">
        <ele>51</ele>
        <time>2023-11-03T13:07:46Z</time>
      </trkpt>
      <trkpt lat="47.28155" lon="-1.58656">
        <ele>50</ele>
        <time>2023-11-03T13:09:00Z</time>
      </trkpt>
      <trkpt lat="47.28174" lon="-1.5866">
        <ele>50</ele>
        <time>2023-11-03T13:09:26Z</time>
      </trkpt>
      <trkpt lat="47.28166" lon="-1.58685">
        <ele>50</ele>
        <time>2023-11-03T13:09:51Z</time>
      </trkpt>
      <trkpt lat="47.28156" lon="-1.58709">
        <ele>50</ele>
        <time>2023-11-03T13:10:16Z</time>
      </trkpt>
      <trkpt lat="47.28146" lon="-1.58733">
        <ele>50</ele>
        <time>2023-11-03T13:10:42Z</time>
      </trkpt>
      <trkpt lat="47.2814" lon="-1.58759">
        <ele>50</ele>
        <time>2023-11-03T13:11:06Z</time>
      </trkpt>
      <trkpt lat="47.28141" lon="-1.58787">
        <ele>50</ele>
        <time>2023-11-03T13:11:32Z</time>
      </trkpt>
      <trkpt lat="47.28152" lon="-1.58808">
        <ele>50</ele>
        <time>2023-11-03T13:11:56Z</time>
      </trkpt>
      <trkpt lat="47.28187" lon="-1.58827">
        <ele>49</ele>
        <time>2023-11-03T13:12:46Z</time>
      </trkpt>
      <trkpt lat="47.28202" lon="-1.58841">
        <ele>49</ele>
        <time>2023-11-03T13:13:09Z</time>
      </trkpt>
      <trkpt lat="47.28217" lon="-1.58857">
        <ele>49</ele>
        <time>2023-11-03T13:13:34Z</time>
      </trkpt>
      <trkpt lat="47.28219" lon="-1.58884">
        <ele>49</ele>
        <time>2023-11-03T13:13:59Z</time>
      </trkpt>
      <trkpt lat="47.28197" lon="-1.58928">
        <ele>50</ele>
        <time>2023-11-03T13:14:48Z</time>
      </trkpt>
      <trkpt lat="47.28185" lon="-1.58949">
        <ele>51</ele>
        <time>2023-11-03T13:15:13Z</time>
      </trkpt>
      <trkpt lat="47.28173" lon="-1.5897">
        <ele>51</ele>
        <time>2023-11-03T13:15:38Z</time>
      </trkpt>
      <trkpt lat="47.2816" lon="-1.58991">
        <ele>52</ele>
        <time>2023-11-03T13:16:04Z</time>
      </trkpt>
      <trkpt lat="47.28136" lon="-1.59031">
        <ele>53</ele>
        <time>2023-11-03T13:16:52Z</time>
      </trkpt>
      <trkpt lat="47.28124" lon="-1.59052">
        <ele>53</ele>
        <time>2023-11-03T13:17:17Z</time>
      </trkpt>
      <trkpt lat="47.28112" lon="-1.59073">
        <ele>53</ele>
        <time>2023-11-03T13:17:42Z</time>
      </trkpt>
      <trkpt lat="47.28099" lon="-1.59092">
        <ele>53</ele>
        <time>2023-11-03T13:18:06Z</time>
      </trkpt>
      <trkpt lat="47.28085" lon="-1.59111">
        <ele>53</ele>
        <time>2023-11-03T13:18:31Z</time>
      </trkpt>
      <trkpt lat="47.28095" lon="-1.59134">
        <ele>53</ele>
        <time>2023-11-03T13:18:56Z</time>
      </trkpt>
      <trkpt lat="47.28095" lon="-1.59161">
        <ele>53</ele>
        <time>2023-11-03T13:19:21Z</time>
      </trkpt>
      <trkpt lat="47.28107" lon="-1.59182">
        <ele>53</ele>
        <time>2023-11-03T13:19:45Z</time>
      </trkpt>
      <trkpt lat="47.28121" lon="-1.592">
        <ele>53</ele>
        <time>2023-11-03T13:20:10Z</time>
      </trkpt>
      <trkpt lat="47.28136" lon="-1.59216">
        <ele>53</ele>
        <time>2023-11-03T13:20:35Z</time>
      </trkpt>
      <trkpt lat="47.28151" lon="-1.59234">
        <ele>52</ele>
        <time>2023-11-03T13:21:01Z</time>
      </trkpt>
      <trkpt lat="47.28166" lon="-1.5925">
        <ele>52</ele>
        <time>2023-11-03T13:21:25Z</time>
      </trkpt>
      <trkpt lat="47.28181" lon="-1.59268">
        <ele>52</ele>
        <time>2023-11-03T13:21:51Z</time>
      </trkpt>
      <trkpt lat="47.28194" lon="-1.59287">
        <ele>52</ele>
        <time>2023-11-03T13:22:16Z</time>
      </trkpt>
      <trkpt lat="47.2821" lon="-1.59301">
        <ele>53</ele>
        <time>2023-11-03T13:22:41Z</time>
      </trkpt>
      <trkpt lat="47.28219" lon="-1.59325">
        <ele>53</ele>
        <time>2023-11-03T13:23:05Z</time>
      </trkpt>
      <trkpt lat="47.28231" lon="-1.59347">
        <ele>54</ele>
        <time>2023-11-03T13:23:31Z</time>
      </trkpt>
      <trkpt lat="47.28248" lon="-1.59359">
        <ele>54</ele>
        <time>2023-11-03T13:23:56Z</time>
      </trkpt>
      <trkpt lat="47.28265" lon="-1.59373">
        <ele>54</ele>
        <time>2023-11-03T13:24:22Z</time>
      </trkpt>
      <trkpt lat="47.28281" lon="-1.59386">
        <ele>55</ele>
        <time>2023-11-03T13:24:46Z</time>
      </trkpt>
      <trkpt lat="47.28314" lon="-1.59412">
        <ele>54</ele>
        <time>2023-11-03T13:25:36Z</time>
      </trkpt>
      <trkpt lat="47.28332" lon="-1.59419">
        <ele>54</ele>
        <time>2023-11-03T13:26:01Z</time>
      </trkpt>
      <trkpt lat="47.2835" lon="-1.59424">
        <ele>54</ele>
        <time>2023-11-03T13:26:26Z</time>
      </trkpt>
      <trkpt lat="47.28368" lon="-1.59427">
        <ele>54</ele>
        <time>2023-11-03T13:26:50Z</time>
      </trkpt>
      <trkpt lat="47.28387" lon="-1.59433">
        <ele>54</ele>
        <time>2023-11-03T13:27:16Z</time>
      </trkpt>
      <trkpt lat="47.28424" lon="-1.59443">
        <ele>53</ele>
        <time>2023-11-03T13:28:06Z</time>
      </trkpt>
      <trkpt lat="47.28442" lon="-1.59449">
        <ele>54</ele>
        <time>2023-11-03T13:28:31Z</time>
      </trkpt>
      <trkpt lat="47.28461" lon="-1.59454">
        <ele>54</ele>
        <time>2023-11-03T13:28:56Z</time>
      </trkpt>
      <trkpt lat="47.28479" lon="-1.59459">
        <ele>54</ele>
        <time>2023-11-03T13:29:21Z</time>
      </trkpt>
      <trkpt lat="47.28497" lon="-1.59463">
        <ele>54</ele>
        <time>2023-11-03T13:29:45Z</time>
      </trkpt>
      <trkpt lat="47.28516" lon="-1.59468">
        <ele>53</ele>
        <time>2023-11-03T13:30:11Z</time>
      </trkpt>
      <trkpt lat="47.28534" lon="-1.59473">
        <ele>53</ele>
        <time>2023-11-03T13:30:35Z</time>
      </trkpt>
      <trkpt lat="47.28553" lon="-1.59477">
        <ele>52</ele>
        <time>2023-11-03T13:31:01Z</time>
      </trkpt>
      <trkpt lat="47.28589" lon="-1.5949">
        <ele>51</ele>
        <time>2023-11-03T13:31:50Z</time>
      </trkpt>
      <trkpt lat="47.28625" lon="-1.59501">
        <ele>51</ele>
        <time>2023-11-03T13:32:39Z</time>
      </trkpt>
      <trkpt lat="47.28643" lon="-1.59504">
        <ele>52</ele>
        <time>2023-11-03T13:33:04Z</time>
      </trkpt>
      <trkpt lat="47.28661" lon="-1.59509">
        <ele>52</ele>
        <time>2023-11-03T13:33:28Z</time>
      </trkpt>
      <trkpt lat="47.2868" lon="-1.59514">
        <ele>52</ele>
        <time>2023-11-03T13:33:54Z</time>
      </trkpt>
      <trkpt lat="47.28712" lon="-1.59539">
        <ele>52</ele>
        <time>2023-11-03T13:34:42Z</time>
      </trkpt>
      <trkpt lat="47.28729" lon="-1.59552">
        <ele>52</ele>
        <time>2023-11-03T13:35:08Z</time>
      </trkpt>
      <trkpt lat="47.28744" lon="-1.59568">
        <ele>52</ele>
        <time>2023-11-03T13:35:32Z</time>
      </trkpt>
      <trkpt lat="47.28758" lon="-1.59587">
        <ele>52</ele>
        <time>2023-11-03T13:35:58Z</time>
      </trkpt>
      <trkpt lat="47.28773" lon="-1.59603">
        <ele>53</ele>
        <time>2023-11-03T13:36:22Z</time>
      </trkpt>
      <trkpt lat="47.28788" lon="-1.5962">
        <ele>53</ele>
        <time>2023-11-03T13:36:48Z</time>
      </trkpt>
      <trkpt lat="47.28803" lon="-1.59636">
        <ele>54</ele>
        <time>2023-11-03T13:37:12Z</time>
      </trkpt>
      <trkpt lat="47.28819" lon="-1.59648">
        <ele>55</ele>
        <time>2023-11-03T13:37:36Z</time>
      </trkpt>
      <trkpt lat="47.28837" lon="-1.59653">
        <ele>56</ele>
        <time>2023-11-03T13:38:01Z</time>
      </trkpt>
      <trkpt lat="47.28856" lon="-1.59651">
        <ele>56</ele>
        <time>2023-11-03T13:38:26Z</time>
      </trkpt>
      <trkpt lat="47.28875" lon="-1.59648">
        <ele>57</ele>
        <time>2023-11-03T13:38:52Z</time>
      </trkpt>
      <trkpt lat="47.28893" lon="-1.59646">
        <ele>57</ele>
        <time>2023-11-03T13:39:16Z</time>
      </trkpt>
      <trkpt lat="47.28912" lon="-1.59646">
        <ele>58</ele>
        <time>2023-11-03T13:39:41Z</time>
      </trkpt>
      <trkpt lat="47.2893" lon="-1.59637">
        <ele>58</ele>
        <time>2023-11-03T13:40:07Z</time>
      </trkpt>
      <trkpt lat="47.28945" lon="-1.59652">
        <ele>59</ele>
        <time>2023-11-03T13:40:31Z</time>
      </trkpt>
      <trkpt lat="47.28963" lon="-1.59657">
        <ele>59</ele>
        <time>2023-11-03T13:40:55Z</time>
      </trkpt>
      <trkpt lat="47.28981" lon="-1.59664">
        <ele>60</ele>
        <time>2023-11-03T13:41:20Z</time>
      </trkpt>
      <trkpt lat="47.28999" lon="-1.59668">
        <ele>60</ele>
        <time>2023-11-03T13:41:44Z</time>
      </trkpt>
      <trkpt lat="47.29018" lon="-1.59675">
        <ele>59</ele>
        <time>2023-11-03T13:42:10Z</time>
      </trkpt>
      <trkpt lat="47.29036" lon="-1.5968">
        <ele>59</ele>
        <time>2023-11-03T13:42:35Z</time>
      </trkpt>
      <trkpt lat="47.29054" lon="-1.59686">
        <ele>58</ele>
        <time>2023-11-03T13:43:00Z</time>
      </trkpt>
      <trkpt lat="47.2909" lon="-1.59699">
        <ele>57</ele>
        <time>2023-11-03T13:43:49Z</time>
      </trkpt>
      <trkpt lat="47.29108" lon="-1.59705">
        <ele>56</ele>
        <time>2023-11-03T13:44:14Z</time>
      </trkpt>
      <trkpt lat="47.29126" lon="-1.59708">
        <ele>55</ele>
        <time>2023-11-03T13:44:38Z</time>
      </trkpt>
      <trkpt lat="47.29145" lon="-1.59704">
        <ele>54</ele>
        <time>2023-11-03T13:45:03Z</time>
      </trkpt>
      <trkpt lat="47.29163" lon="-1.59697">
        <ele>53</ele>
        <time>2023-11-03T13:45:28Z</time>
      </trkpt>
      <trkpt lat="47.29181" lon="-1.59698">
        <ele>53</ele>
        <time>2023-11-03T13:45:52Z</time>
      </trkpt>
      <trkpt lat="47.292" lon="-1.597">
        <ele>53</ele>
        <time>2023-11-03T13:46:18Z</time>
      </trkpt>
      <trkpt lat="47.29219" lon="-1.59702">
        <ele>52</ele>
        <time>2023-11-03T13:46:43Z</time>
      </trkpt>
      <trkpt lat="47.29237" lon="-1.59702">
        <ele>52</ele>
        <time>2023-11-03T13:47:07Z</time>
      </trkpt>
      <trkpt lat="47.29256" lon="-1.59704">
        <ele>52</ele>
        <time>2023-11-03T13:47:33Z</time>
      </trkpt>
      <trkpt lat="47.29266" lon="-1.59682">
        <ele>53</ele>
        <time>2023-11-03T13:47:57Z</time>
      </trkpt>
      <trkpt lat="47.29267" lon="-1.59654">
        <ele>53</ele>
        <time>2023-11-03T13:48:22Z</time>
      </trkpt>
      <trkpt lat="47.29273" lon="-1.59628">
        <ele>53</ele>
        <time>2023-11-03T13:48:47Z</time>
      </trkpt>
      <trkpt lat="47.29276" lon="-1.596">
        <ele>54</ele>
        <time>2023-11-03T13:49:12Z</time>
      </trkpt>
      <trkpt lat="47.29282" lon="-1.59574">
        <ele>54</ele>
        <time>2023-11-03T13:49:37Z</time>
      </trkpt>
      <trkpt lat="47.29285" lon="-1.59548">
        <ele>54</ele>
        <time>2023-11-03T13:50:01Z</time>
      </trkpt>
      <trkpt lat="47.29289" lon="-1.59521">
        <ele>54</ele>
        <time>2023-11-03T13:50:26Z</time>
      </trkpt>
      <trkpt lat="47.29294" lon="-1.59494">
        <ele>54</ele>
        <time>2023-11-03T13:50:52Z</time>
      </trkpt>
      <trkpt lat="47.293" lon="-1.59439">
        <ele>54</ele>
        <time>2023-11-03T13:51:42Z</time>
      </trkpt>
      <trkpt lat="47.29302" lon="-1.59411">
        <ele>54</ele>
        <time>2023-11-03T13:52:07Z</time>
      </trkpt>
      <trkpt lat="47.29305" lon="-1.59383">
        <ele>53</ele>
        <time>2023-11-03T13:52:33Z</time>
      </trkpt>
      <trkpt lat="47.29312" lon="-1.59357">
        <ele>53</ele>
        <time>2023-11-03T13:52:58Z</time>
      </trkpt>
      <trkpt lat="47.29314" lon="-1.5933">
        <ele>53</ele>
        <time>2023-11-03T13:53:23Z</time>
      </trkpt>
      <trkpt lat="47.29318" lon="-1.59303">
        <ele>52</ele>
        <time>2023-11-03T13:53:48Z</time>
      </trkpt>
      <trkpt lat="47.29322" lon="-1.59276">
        <ele>51</ele>
        <time>2023-11-03T13:54:13Z</time>
      </trkpt>
      <trkpt lat="47.2933" lon="-1.59252">
        <ele>51</ele>
        <time>2023-11-03T13:54:37Z</time>
      </trkpt>
      <trkpt lat="47.29342" lon="-1.59231">
        <ele>50</ele>
        <time>2023-11-03T13:55:02Z</time>
      </trkpt>
      <trkpt lat="47.2936" lon="-1.59227">
        <ele>50</ele>
        <time>2023-11-03T13:55:26Z</time>
      </trkpt>
      <trkpt lat="47.29379" lon="-1.59225">
        <ele>50</ele>
        <time>2023-11-03T13:55:52Z</time>
      </trkpt>
      <trkpt lat="47.29389" lon="-1.59202">
        <ele>49</ele>
        <time>2023-11-03T13:56:16Z</time>
      </trkpt>
      <trkpt lat="47.29378" lon="-1.59179">
        <ele>47</ele>
        <time>2023-11-03T13:56:42Z</time>
      </trkpt>
      <trkpt lat="47.2938" lon="-1.59152">
        <ele>46</ele>
        <time>2023-11-03T13:57:07Z</time>
      </trkpt>
      <trkpt lat="47.29388" lon="-1.59127">
        <ele>45</ele>
        <time>2023-11-03T13:57:32Z</time>
      </trkpt>
      <trkpt lat="47.29403" lon="-1.59112">
        <ele>45</ele>
        <time>2023-11-03T13:57:56Z</time>
      </trkpt>
      <trkpt lat="47.29409" lon="-1.59086">
        <ele>44</ele>
        <time>2023-11-03T13:58:21Z</time>
      </trkpt>
      <trkpt lat="47.29421" lon="-1.59065">
        <ele>43</ele>
        <time>2023-11-03T13:58:45Z</time>
      </trkpt>
      <trkpt lat="47.29436" lon="-1.59047">
        <ele>43</ele>
        <time>2023-11-03T13:59:11Z</time>
      </trkpt>
      <trkpt lat="47.29449" lon="-1.59027">
        <ele>43</ele>
        <time>2023-11-03T13:59:36Z</time>
      </trkpt>
      <trkpt lat="47.29463" lon="-1.59008">
        <ele>42</ele>
        <time>2023-11-03T14:00:02Z</time>
      </trkpt>
      <trkpt lat="47.2947" lon="-1.58983">
        <ele>42</ele>
        <time>2023-11-03T14:00:26Z</time>
      </trkpt>
      <trkpt lat="47.29472" lon="-1.58955">
        <ele>41</ele>
        <time>2023-11-03T14:00:52Z</time>
      </trkpt>
      <trkpt lat="47.29466" lon="-1.5893">
        <ele>40</ele>
        <time>2023-11-03T14:01:16Z</time>
      </trkpt>
      <trkpt lat="47.29457" lon="-1.58906">
        <ele>39</ele>
        <time>2023-11-03T14:01:41Z</time>
      </trkpt>
      <trkpt lat="47.29457" lon="-1.5888">
        <ele>38</ele>
        <time>2023-11-03T14:02:04Z</time>
      </trkpt>
      <trkpt lat="47.29454" lon="-1.58852">
        <ele>37</ele>
        <time>2023-11-03T14:02:30Z</time>
      </trkpt>
      <trkpt lat="47.2945" lon="-1.58825">
        <ele>36</ele>
        <time>2023-11-03T14:02:55Z</time>
      </trkpt>
      <trkpt lat="47.29463" lon="-1.58772">
        <ele>35</ele>
        <time>2023-11-03T14:03:46Z</time>
      </trkpt>
      <trkpt lat="47.29461" lon="-1.58746">
        <ele>35</ele>
        <time>2023-11-03T14:04:09Z</time>
      </trkpt>
      <trkpt lat="47.29456" lon="-1.58721">
        <ele>35</ele>
        <time>2023-11-03T14:04:33Z</time>
      </trkpt>
      <trkpt lat="47.29454" lon="-1.58692">
        <ele>34</ele>
        <time>2023-11-03T14:04:59Z</time>
      </trkpt>
      <trkpt lat="47.29454" lon="-1.58666">
        <ele>34</ele>
        <time>2023-11-03T14:05:23Z</time>
      </trkpt>
      <trkpt lat="47.29457" lon="-1.58639">
        <ele>34</ele>
        <time>2023-11-03T14:05:48Z</time>
      </trkpt>
      <trkpt lat="47.29457" lon="-1.58611">
        <ele>33</ele>
        <time>2023-11-03T14:06:13Z</time>
      </trkpt>
      <trkpt lat="47.29455" lon="-1.58584">
        <ele>32</ele>
        <time>2023-11-03T14:06:38Z</time>
      </trkpt>
      <trkpt lat="47.29451" lon="-1.58556">
        <ele>32</ele>
        <time>2023-11-03T14:07:04Z</time>
      </trkpt>
      <trkpt lat="47.2945" lon="-1.58529">
        <ele>33</ele>
        <time>2023-11-03T14:07:28Z</time>
      </trkpt>
      <trkpt lat="47.29442" lon="-1.58474">
        <ele>34</ele>
        <time>2023-11-03T14:08:19Z</time>
      </trkpt>
      <trkpt lat="47.29436" lon="-1.58449">
        <ele>34</ele>
        <time>2023-11-03T14:08:43Z</time>
      </trkpt>
      <trkpt lat="47.29439" lon="-1.58421">
        <ele>35</ele>
        <time>2023-11-03T14:09:09Z</time>
      </trkpt>
      <trkpt lat="47.29451" lon="-1.58399">
        <ele>36</ele>
        <time>2023-11-03T14:09:34Z</time>
      </trkpt>
      <trkpt lat="47.29459" lon="-1.58374">
        <ele>36</ele>
        <time>2023-11-03T14:09:59Z</time>
      </trkpt>
      <trkpt lat="47.29454" lon="-1.58348">
        <ele>36</ele>
        <time>2023-11-03T14:10:24Z</time>
      </trkpt>
      <trkpt lat="47.2944" lon="-1.58296">
        <ele>37</ele>
        <time>2023-11-03T14:11:14Z</time>
      </trkpt>
      <trkpt lat="47.29426" lon="-1.58246">
        <ele>38</ele>
        <time>2023-11-03T14:12:03Z</time>
      </trkpt>
      <trkpt lat="47.2942" lon="-1.5822">
        <ele>38</ele>
        <time>2023-11-03T14:12:28Z</time>
      </trkpt>
      <trkpt lat="47.29425" lon="-1.58195">
        <ele>38</ele>
        <time>2023-11-03T14:12:52Z</time>
      </trkpt>
      <trkpt lat="47.29427" lon="-1.58168">
        <ele>39</ele>
        <time>2023-11-03T14:13:16Z</time>
      </trkpt>
      <trkpt lat="47.29422" lon="-1.58141">
        <ele>38</ele>
        <time>2023-11-03T14:13:42Z</time>
      </trkpt>
      <trkpt lat="47.29415" lon="-1.58115">
        <ele>38</ele>
        <time>2023-11-03T14:14:07Z</time>
      </trkpt>
      <trkpt lat="47.29406" lon="-1.58091">
        <ele>37</ele>
        <time>2023-11-03T14:14:32Z</time>
      </trkpt>
      <trkpt lat="47.29396" lon="-1.58068">
        <ele>36</ele>
        <time>2023-11-03T14:14:56Z</time>
      </trkpt>
      <trkpt lat="47.29386" lon="-1.58045">
        <ele>36</ele>
        <time>2023-11-03T14:15:21Z</time>
      </trkpt>
      <trkpt lat="47.29368" lon="-1.58043">
        <ele>36</ele>
        <time>2023-11-03T14:15:45Z</time>
      </trkpt>
      <trkpt lat="47.29349" lon="-1.58043">
        <ele>36</ele>
        <time>2023-11-03T14:16:11Z</time>
      </trkpt>
      <trkpt lat="47.29338" lon="-1.58022">
        <ele>35</ele>
        <time>2023-11-03T14:16:35Z</time>
      </trkpt>
      <trkpt lat="47.29329" lon="-1.57998">
        <ele>34</ele>
        <time>2023-11-03T14:16:59Z</time>
      </trkpt>
      <trkpt lat="47.29319" lon="-1.57974">
        <ele>32</ele>
        <time>2023-11-03T14:17:25Z</time>
      </trkpt>
      <trkpt lat="47.29311" lon="-1.5795">
        <ele>31</ele>
        <time>2023-11-03T14:17:49Z</time>
      </trkpt>
      <trkpt lat="47.29301" lon="-1.57926">
        <ele>29</ele>
        <time>2023-11-03T14:18:15Z</time>
      </trkpt>
      <trkpt lat="47.29289" lon="-1.57905">
        <ele>27</ele>
        <time>2023-11-03T14:18:39Z</time>
      </trkpt>
      <trkpt lat="47.29276" lon="-1.57887">
        <ele>26</ele>
        <time>2023-11-03T14:19:03Z</time>
      </trkpt>
      <trkpt lat="47.29265" lon="-1.57865">
        <ele>25</ele>
        <time>2023-11-03T14:19:28Z</time>
      </trkpt>
      <trkpt lat="47.2925" lon="-1.57847">
        <ele>23</ele>
        <time>2023-11-03T14:19:54Z</time>
      </trkpt>
      <trkpt lat="47.29239" lon="-1.57825">
        <ele>23</ele>
        <time>2023-11-03T14:20:19Z</time>
      </trkpt>
      <trkpt lat="47.29231" lon="-1.578">
        <ele>22</ele>
        <time>2023-11-03T14:20:44Z</time>
      </trkpt>
      <trkpt lat="47.29227" lon="-1.57772">
        <ele>22</ele>
        <time>2023-11-03T14:21:09Z</time>
      </trkpt>
      <trkpt lat="47.29223" lon="-1.57746">
        <ele>21</ele>
        <time>2023-11-03T14:21:34Z</time>
      </trkpt>
      <trkpt lat="47.29214" lon="-1.5772">
        <ele>21</ele>
        <time>2023-11-03T14:22:00Z</time>
      </trkpt>
      <trkpt lat="47.29207" lon="-1.57695">
        <ele>21</ele>
        <time>2023-11-03T14:22:24Z</time>
      </trkpt>
      <trkpt lat="47.29227" lon="-1.57617">
        <ele>19</ele>
        <time>2023-11-03T14:23:40Z</time>
      </trkpt>
      <trkpt lat="47.29235" lon="-1.57592">
        <ele>18</ele>
        <time>2023-11-03T14:24:05Z</time>
      </trkpt>
      <trkpt lat="47.29248" lon="-1.57573">
        <ele>17</ele>
        <time>2023-11-03T14:24:29Z</time>
      </trkpt>
      <trkpt lat="47.29239" lon="-1.57549">
        <ele>18</ele>
        <time>2023-11-03T14:24:54Z</time>
      </trkpt>
      <trkpt lat="47.29221" lon="-1.5754">
        <ele>19</ele>
        <time>2023-11-03T14:25:20Z</time>
      </trkpt>
      <trkpt lat="47.29203" lon="-1.5753">
        <ele>20</ele>
        <time>2023-11-03T14:25:45Z</time>
      </trkpt>
      <trkpt lat="47.29196" lon="-1.57555">
        <ele>20</ele>
        <time>2023-11-03T14:26:10Z</time>
      </trkpt>
      <trkpt lat="47.29184" lon="-1.57576">
        <ele>22</ele>
        <time>2023-11-03T14:26:35Z</time>
      </trkpt>
      <trkpt lat="47.29167" lon="-1.57583">
        <ele>23</ele>
        <time>2023-11-03T14:26:58Z</time>
      </trkpt>
      <trkpt lat="47.29148" lon="-1.57578">
        <ele>24</ele>
        <time>2023-11-03T14:27:24Z</time>
      </trkpt>
      <trkpt lat="47.2913" lon="-1.57571">
        <ele>25</ele>
        <time>2023-11-03T14:27:49Z</time>
      </trkpt>
      <trkpt lat="47.29094" lon="-1.57564">
        <ele>28</ele>
        <time>2023-11-03T14:28:37Z</time>
      </trkpt>
      <trkpt lat="47.29075" lon="-1.57561">
        <ele>29</ele>
        <time>2023-11-03T14:29:03Z</time>
      </trkpt>
      <trkpt lat="47.29057" lon="-1.57559">
        <ele>30</ele>
        <time>2023-11-03T14:29:27Z</time>
      </trkpt>
      <trkpt lat="47.29039" lon="-1.57558">
        <ele>31</ele>
        <time>2023-11-03T14:29:51Z</time>
      </trkpt>
      <trkpt lat="47.29028" lon="-1.57536">
        <ele>32</ele>
        <time>2023-11-03T14:30:16Z</time>
      </trkpt>
      <trkpt lat="47.29035" lon="-1.57511">
        <ele>31</ele>
        <time>2023-11-03T14:30:40Z</time>
      </trkpt>
      <trkpt lat="47.29038" lon="-1.57484">
        <ele>31</ele>
        <time>2023-11-03T14:31:05Z</time>
      </trkpt>
      <trkpt lat="47.2904" lon="-1.57457">
        <ele>32</ele>
        <time>2023-11-03T14:31:29Z</time>
      </trkpt>
      <trkpt lat="47.2904" lon="-1.5743">
        <ele>32</ele>
        <time>2023-11-03T14:31:54Z</time>
      </trkpt>
      <trkpt lat="47.29039" lon="-1.57403">
        <ele>32</ele>
        <time>2023-11-03T14:32:18Z</time>
      </trkpt>
      <trkpt lat="47.29038" lon="-1.57376">
        <ele>33</ele>
        <time>2023-11-03T14:32:43Z</time>
      </trkpt>
      <trkpt lat="47.29039" lon="-1.57349">
        <ele>33</ele>
        <time>2023-11-03T14:33:07Z</time>
      </trkpt>
      <trkpt lat="47.2904" lon="-1.57295">
        <ele>33</ele>
        <time>2023-11-03T14:33:56Z</time>
      </trkpt>
      <trkpt lat="47.29039" lon="-1.57267">
        <ele>33</ele>
        <time>2023-11-03T14:34:22Z</time>
      </trkpt>
      <trkpt lat="47.2904" lon="-1.5724">
        <ele>33</ele>
        <time>2023-11-03T14:34:46Z</time>
      </trkpt>
      <trkpt lat="47.29038" lon="-1.57213">
        <ele>34</ele>
        <time>2023-11-03T14:35:11Z</time>
      </trkpt>
      <trkpt lat="47.29035" lon="-1.57185">
        <ele>35</ele>
        <time>2023-11-03T14:35:36Z</time>
      </trkpt>
      <trkpt lat="47.29035" lon="-1.57158">
        <ele>35</ele>
        <time>2023-11-03T14:36:01Z</time>
      </trkpt>
      <trkpt lat="47.29031" lon="-1.57131">
        <ele>35</ele>
        <time>2023-11-03T14:36:26Z</time>
      </trkpt>
      <trkpt lat="47.29025" lon="-1.57105">
        <ele>36</ele>
        <time>2023-11-03T14:36:51Z</time>
      </trkpt>
      <trkpt lat="47.29035" lon="-1.57081">
        <ele>35</ele>
        <time>2023-11-03T14:37:16Z</time>
      </trkpt>
      <trkpt lat="47.2905" lon="-1.57064">
        <ele>34</ele>
        <time>2023-11-03T14:37:41Z</time>
      </trkpt>
      <trkpt lat="47.29062" lon="-1.57044">
        <ele>34</ele>
        <time>2023-11-03T14:38:05Z</time>
      </trkpt>
      <trkpt lat="47.29078" lon="-1.57028">
        <ele>34</ele>
        <time>2023-11-03T14:38:31Z</time>
      </trkpt>
      <trkpt lat="47.29094" lon="-1.57015">
        <ele>33</ele>
        <time>2023-11-03T14:38:56Z</time>
      </trkpt>
      <trkpt lat="47.29107" lon="-1.56997">
        <ele>33</ele>
        <time>2023-11-03T14:39:19Z</time>
      </trkpt>
      <trkpt lat="47.29123" lon="-1.56984">
        <ele>33</ele>
        <time>2023-11-03T14:39:44Z</time>
      </trkpt>
      <trkpt lat="47.29156" lon="-1.56959">
        <ele>32</ele>
        <time>2023-11-03T14:40:33Z</time>
      </trkpt>
      <trkpt lat="47.2917" lon="-1.56939">
        <ele>32</ele>
        <time>2023-11-03T14:40:59Z</time>
      </trkpt>
      <trkpt lat="47.29183" lon="-1.56921">
        <ele>31</ele>
        <time>2023-11-03T14:41:23Z</time>
      </trkpt>
      <trkpt lat="47.29196" lon="-1.569">
        <ele>29</ele>
        <time>2023-11-03T14:41:49Z</time>
      </trkpt>
      <trkpt lat="47.29202" lon="-1.56874">
        <ele>27</ele>
        <time>2023-11-03T14:42:14Z</time>
      </trkpt>
      <trkpt lat="47.29212" lon="-1.56852">
        <ele>25</ele>
        <time>2023-11-03T14:42:38Z</time>
      </trkpt>
      <trkpt lat="47.29224" lon="-1.5683">
        <ele>23</ele>
        <time>2023-11-03T14:43:03Z</time>
      </trkpt>
      <trkpt lat="47.29239" lon="-1.56814">
        <ele>21</ele>
        <time>2023-11-03T14:43:28Z</time>
      </trkpt>
      <trkpt lat="47.29253" lon="-1.56797">
        <ele>18</ele>
        <time>2023-11-03T14:43:52Z</time>
      </trkpt>
      <trkpt lat="47.29254" lon="-1.5677">
        <ele>16</ele>
        <time>2023-11-03T14:44:17Z</time>
      </trkpt>
      <trkpt lat="47.29247" lon="-1.56745">
        <ele>14</ele>
        <time>2023-11-03T14:44:41Z</time>
      </trkpt>
      <trkpt lat="47.2924" lon="-1.56719">
        <ele>15</ele>
        <time>2023-11-03T14:45:06Z</time>
      </trkpt>
      <trkpt lat="47.29231" lon="-1.56696">
        <ele>15</ele>
        <time>2023-11-03T14:45:31Z</time>
      </trkpt>
      <trkpt lat="47.29224" lon="-1.56671">
        <ele>16</ele>
        <time>2023-11-03T14:45:55Z</time>
      </trkpt>
      <trkpt lat="47.2922" lon="-1.56643">
        <ele>18</ele>
        <time>2023-11-03T14:46:21Z</time>
      </trkpt>
      <trkpt lat="47.29238" lon="-1.56644">
        <ele>18</ele>
        <time>2023-11-03T14:46:45Z</time>
      </trkpt>
      <trkpt lat="47.29257" lon="-1.56597">
        <ele>22</ele>
        <time>2023-11-03T14:47:34Z</time>
      </trkpt>
      <trkpt lat="47.29275" lon="-1.56605">
        <ele>22</ele>
        <time>2023-11-03T14:48:00Z</time>
      </trkpt>
      <trkpt lat="47.29286" lon="-1.56627">
        <ele>21</ele>
        <time>2023-11-03T14:48:24Z</time>
      </trkpt>
      <trkpt lat="47.29299" lon="-1.56645">
        <ele>21</ele>
        <time>2023-11-03T14:48:48Z</time>
      </trkpt>
      <trkpt lat="47.29317" lon="-1.56655">
        <ele>21</ele>
        <time>2023-11-03T14:49:14Z</time>
      </trkpt>
      <trkpt lat="47.29333" lon="-1.56667">
        <ele>21</ele>
        <time>2023-11-03T14:49:38Z</time>
      </trkpt>
      <trkpt lat="47.29346" lon="-1.56686">
        <ele>21</ele>
        <time>2023-11-03T14:50:02Z</time>
      </trkpt>
      <trkpt lat="47.29362" lon="-1.56705">
        <ele>22</ele>
        <time>2023-11-03T14:50:30Z</time>
      </trkpt>
      <trkpt lat="47.29378" lon="-1.56721">
        <ele>23</ele>
        <time>2023-11-03T14:50:55Z</time>
      </trkpt>
      <trkpt lat="47.29394" lon="-1.56733">
        <ele>24</ele>
        <time>2023-11-03T14:51:19Z</time>
      </trkpt>
      <trkpt lat="47.2941" lon="-1.56746">
        <ele>25</ele>
        <time>2023-11-03T14:51:44Z</time>
      </trkpt>
      <trkpt lat="47.29427" lon="-1.56756">
        <ele>25</ele>
        <time>2023-11-03T14:52:08Z</time>
      </trkpt>
      <trkpt lat="47.29446" lon="-1.5676">
        <ele>26</ele>
        <time>2023-11-03T14:52:34Z</time>
      </trkpt>
      <trkpt lat="47.29464" lon="-1.56763">
        <ele>27</ele>
        <time>2023-11-03T14:52:58Z</time>
      </trkpt>
      <trkpt lat="47.29482" lon="-1.5677">
        <ele>28</ele>
        <time>2023-11-03T14:53:23Z</time>
      </trkpt>
      <trkpt lat="47.29504" lon="-1.5677">
        <ele>29</ele>
        <time>2023-11-03T14:53:52Z</time>
      </trkpt>
      <trkpt lat="47.29521" lon="-1.56765">
        <ele>30</ele>
        <time>2023-11-03T14:54:15Z</time>
      </trkpt>
      <trkpt lat="47.29536" lon="-1.56749">
        <ele>31</ele>
        <time>2023-11-03T14:54:40Z</time>
      </trkpt>
      <trkpt lat="47.29572" lon="-1.56732">
        <ele>34</ele>
        <time>2023-11-03T14:55:30Z</time>
      </trkpt>
      <trkpt lat="47.29589" lon="-1.56723">
        <ele>34</ele>
        <time>2023-11-03T14:55:54Z</time>
      </trkpt>
      <trkpt lat="47.29607" lon="-1.56719">
        <ele>33</ele>
        <time>2023-11-03T14:56:19Z</time>
      </trkpt>
      <trkpt lat="47.29625" lon="-1.5671">
        <ele>33</ele>
        <time>2023-11-03T14:56:44Z</time>
      </trkpt>
      <trkpt lat="47.29641" lon="-1.56697">
        <ele>33</ele>
        <time>2023-11-03T14:57:08Z</time>
      </trkpt>
      <trkpt lat="47.29639" lon="-1.5667">
        <ele>34</ele>
        <time>2023-11-03T14:57:33Z</time>
      </trkpt>
      <trkpt lat="47.29632" lon="-1.56645">
        <ele>35</ele>
        <time>2023-11-03T14:57:58Z</time>
      </trkpt>
      <trkpt lat="47.29627" lon="-1.56618">
        <ele>35</ele>
        <time>2023-11-03T14:58:23Z</time>
      </trkpt>
      <trkpt lat="47.29624" lon="-1.56591">
        <ele>36</ele>
        <time>2023-11-03T14:58:48Z</time>
      </trkpt>
      <trkpt lat="47.29616" lon="-1.56567">
        <ele>37</ele>
        <time>2023-11-03T14:59:12Z</time>
      </trkpt>
      <trkpt lat="47.29609" lon="-1.56541">
        <ele>38</ele>
        <time>2023-11-03T14:59:37Z</time>
      </trkpt>
      <trkpt lat="47.29623" lon="-1.56525">
        <ele>38</ele>
        <time>2023-11-03T15:00:01Z</time>
      </trkpt>
      <trkpt lat="47.29642" lon="-1.56523">
        <ele>38</ele>
        <time>2023-11-03T15:00:26Z</time>
      </trkpt>
      <trkpt lat="47.2966" lon="-1.56516">
        <ele>38</ele>
        <time>2023-11-03T15:00:51Z</time>
      </trkpt>
      <trkpt lat="47.29676" lon="-1.56503">
        <ele>38</ele>
        <time>2023-11-03T15:01:15Z</time>
        <extensions>
          <visugpx:TrkExtension xmlns:visugpx="https://www.visugpx.com/editgpx/">
            <visugpx:node>1</visugpx:node>
            </visugpx:TrkExtension>
        </extensions>
      </trkpt>
    </trkseg>
  </trk>
</gpx>